WZZ8BC LQTZ-EDDK
Flight info
| Callsign | WZZ8BC |
|---|---|
| Flight time | 1h 43m |
| Altitude | 34000 |
| Route | DER DCT GUBOK DCT MAGAM DCT LUMUS DCT TATZI DCT VEKIR DCT UMDAS T844 ASKIK/N0396F240 T840 GULKO GULKO1E |
| Aircraft | A21N/M-SDE3FGHIRWY/LB1 |
Departure
| Time | 2026-04-25 14:38 |
|---|---|
| Airport | Tuzla International Airport (LQTZ) |
Arrival
| Time | 2026-04-25 16:21 |
|---|---|
| Airport | Cologne Bonn Airport (EDDK) |
| Time | Latitude | Longitude | Altitude | Speed | Heading |
|---|---|---|---|---|---|
| 2026-04-25 14:12 | 44.46340 | 18.70985 | 770 ft | 0 kts | 95° |
| 2026-04-25 14:30 | 44.46340 | 18.70991 | 770 ft | 1 kts | 99° |
| 2026-04-25 14:31 | 44.46333 | 18.71007 | 771 ft | 2 kts | 137° |
| 2026-04-25 14:31 | 44.46309 | 18.71019 | 771 ft | 5 kts | 175° |
| 2026-04-25 14:31 | 44.46260 | 18.70989 | 769 ft | 10 kts | 217° |
| 2026-04-25 14:31 | 44.46185 | 18.70944 | 766 ft | 13 kts | 191° |
| 2026-04-25 14:32 | 44.46102 | 18.70926 | 765 ft | 0 kts | 188° |
| 2026-04-25 14:32 | 44.46099 | 18.70925 | 764 ft | 0 kts | 188° |
| 2026-04-25 14:32 | 44.46098 | 18.70925 | 764 ft | 0 kts | 188° |
| 2026-04-25 14:36 | 44.46078 | 18.70921 | 764 ft | 6 kts | 189° |
| 2026-04-25 14:36 | 44.46019 | 18.70945 | 763 ft | 10 kts | 143° |
| 2026-04-25 14:36 | 44.45983 | 18.71022 | 764 ft | 8 kts | 96° |
| 2026-04-25 14:37 | 44.45972 | 18.71139 | 766 ft | 30 kts | 96° |
| 2026-04-25 14:37 | 44.45922 | 18.71786 | 775 ft | 101 kts | 97° |
| 2026-04-25 14:37 | 44.45822 | 18.73040 | 786 ft | 159 kts | 96° |
| 2026-04-25 14:37 | 44.45686 | 18.74719 | 1122 ft | 179 kts | 95° |
| 2026-04-25 14:38 | 44.45534 | 18.76434 | 1781 ft | 181 kts | 96° |
| 2026-04-25 14:38 | 44.45393 | 18.78163 | 2430 ft | 180 kts | 95° |
| 2026-04-25 14:38 | 44.45262 | 18.79891 | 2995 ft | 181 kts | 95° |
| 2026-04-25 14:38 | 44.45128 | 18.81643 | 3550 ft | 183 kts | 95° |
| 2026-04-25 14:39 | 44.44991 | 18.83419 | 4076 ft | 186 kts | 94° |
| 2026-04-25 14:39 | 44.45154 | 18.85237 | 4397 ft | 198 kts | 61° |
| 2026-04-25 14:39 | 44.46141 | 18.86577 | 4726 ft | 209 kts | 25° |
| 2026-04-25 14:39 | 44.47600 | 18.86868 | 5042 ft | 223 kts | 350° |
| 2026-04-25 14:40 | 44.49095 | 18.86011 | 5323 ft | 243 kts | 334° |
| 2026-04-25 14:40 | 44.50652 | 18.84973 | 5760 ft | 257 kts | 335° |
| 2026-04-25 14:40 | 44.52304 | 18.83924 | 6464 ft | 260 kts | 336° |
| 2026-04-25 14:40 | 44.53929 | 18.82901 | 7217 ft | 261 kts | 336° |
| 2026-04-25 14:41 | 44.55589 | 18.81857 | 7955 ft | 262 kts | 336° |
| 2026-04-25 14:41 | 44.57245 | 18.80815 | 8650 ft | 264 kts | 336° |
| 2026-04-25 14:41 | 44.58908 | 18.79768 | 9343 ft | 266 kts | 336° |
| 2026-04-25 14:41 | 44.60594 | 18.78705 | 10017 ft | 268 kts | 335° |
| 2026-04-25 14:42 | 44.62295 | 18.77630 | 10659 ft | 270 kts | 336° |
| 2026-04-25 14:42 | 44.62861 | 18.77273 | 10866 ft | 271 kts | 335° |
| 2026-04-25 14:42 | 44.65733 | 18.75456 | 11900 ft | 275 kts | 336° |
| 2026-04-25 14:42 | 44.67473 | 18.74345 | 12508 ft | 277 kts | 333° |
| 2026-04-25 14:43 | 44.69032 | 18.72791 | 13058 ft | 280 kts | 315° |
| 2026-04-25 14:43 | 44.70213 | 18.70577 | 13470 ft | 290 kts | 301° |
| 2026-04-25 14:43 | 44.71215 | 18.68033 | 13729 ft | 305 kts | 300° |
| 2026-04-25 14:43 | 44.72229 | 18.65373 | 14006 ft | 319 kts | 299° |
| 2026-04-25 14:44 | 44.73295 | 18.62582 | 14364 ft | 328 kts | 299° |
| 2026-04-25 14:44 | 44.74382 | 18.59747 | 14913 ft | 332 kts | 299° |
| 2026-04-25 14:44 | 44.75482 | 18.56888 | 15482 ft | 334 kts | 300° |
| 2026-04-25 14:44 | 44.76576 | 18.54047 | 16043 ft | 336 kts | 299° |
| 2026-04-25 14:45 | 44.77694 | 18.51149 | 16602 ft | 338 kts | 300° |
| 2026-04-25 14:45 | 44.78810 | 18.48252 | 17133 ft | 340 kts | 299° |
| 2026-04-25 14:45 | 44.79934 | 18.45334 | 17654 ft | 343 kts | 299° |
| 2026-04-25 14:45 | 44.81069 | 18.42387 | 18172 ft | 345 kts | 299° |
| 2026-04-25 14:46 | 44.82210 | 18.39421 | 18660 ft | 347 kts | 299° |
| 2026-04-25 14:46 | 44.83373 | 18.36393 | 19155 ft | 350 kts | 299° |
| 2026-04-25 14:46 | 44.84515 | 18.33415 | 19634 ft | 352 kts | 298° |
| 2026-04-25 14:46 | 44.85685 | 18.30365 | 20092 ft | 354 kts | 298° |
| 2026-04-25 14:47 | 44.86862 | 18.27296 | 20535 ft | 357 kts | 298° |
| 2026-04-25 14:47 | 44.87251 | 18.26278 | 20676 ft | 358 kts | 298° |
| 2026-04-25 14:47 | 44.89222 | 18.21122 | 21409 ft | 362 kts | 298° |
| 2026-04-25 14:47 | 44.90420 | 18.17982 | 21831 ft | 364 kts | 298° |
| 2026-04-25 14:48 | 44.91619 | 18.14836 | 22263 ft | 366 kts | 298° |
| 2026-04-25 14:48 | 44.92826 | 18.11665 | 22666 ft | 369 kts | 298° |
| 2026-04-25 14:48 | 44.94037 | 18.08477 | 23058 ft | 371 kts | 298° |
| 2026-04-25 14:48 | 44.95243 | 18.05303 | 23450 ft | 373 kts | 298° |
| 2026-04-25 14:49 | 44.96473 | 18.02066 | 23845 ft | 376 kts | 298° |
| 2026-04-25 14:49 | 44.97769 | 17.98839 | 24228 ft | 378 kts | 301° |
| 2026-04-25 14:49 | 44.99202 | 17.95731 | 24614 ft | 379 kts | 304° |
| 2026-04-25 14:49 | 45.00769 | 17.92755 | 24951 ft | 382 kts | 307° |
| 2026-04-25 14:50 | 45.02424 | 17.89794 | 25303 ft | 384 kts | 308° |
| 2026-04-25 14:50 | 45.04048 | 17.86830 | 25666 ft | 385 kts | 305° |
| 2026-04-25 14:50 | 45.05576 | 17.83683 | 26012 ft | 387 kts | 302° |
| 2026-04-25 14:50 | 45.07020 | 17.80483 | 26350 ft | 388 kts | 302° |
| 2026-04-25 14:51 | 45.08448 | 17.77275 | 26681 ft | 389 kts | 302° |
| 2026-04-25 14:51 | 45.09878 | 17.74055 | 26990 ft | 391 kts | 302° |
| 2026-04-25 14:51 | 45.11338 | 17.70766 | 27294 ft | 393 kts | 302° |
| 2026-04-25 14:51 | 45.12779 | 17.67516 | 27591 ft | 395 kts | 301° |
| 2026-04-25 14:52 | 45.14249 | 17.64202 | 27893 ft | 396 kts | 301° |
| 2026-04-25 14:52 | 45.15704 | 17.60917 | 28188 ft | 398 kts | 301° |
| 2026-04-25 14:52 | 45.17164 | 17.57618 | 28485 ft | 400 kts | 301° |
| 2026-04-25 14:52 | 45.17670 | 17.56471 | 28582 ft | 400 kts | 301° |
| 2026-04-25 14:53 | 45.20115 | 17.50935 | 29085 ft | 402 kts | 301° |
| 2026-04-25 14:53 | 45.21590 | 17.47588 | 29389 ft | 403 kts | 301° |
| 2026-04-25 14:53 | 45.23087 | 17.44185 | 29662 ft | 405 kts | 301° |
| 2026-04-25 14:53 | 45.24569 | 17.40811 | 29915 ft | 407 kts | 301° |
| 2026-04-25 14:54 | 45.26059 | 17.37422 | 30182 ft | 408 kts | 301° |
| 2026-04-25 14:54 | 45.27571 | 17.33975 | 30472 ft | 409 kts | 300° |
| 2026-04-25 14:54 | 45.29068 | 17.30557 | 30751 ft | 410 kts | 300° |
| 2026-04-25 14:54 | 45.30562 | 17.27146 | 31020 ft | 411 kts | 300° |
| 2026-04-25 14:55 | 45.32078 | 17.23678 | 31288 ft | 412 kts | 300° |
| 2026-04-25 14:55 | 45.33581 | 17.20237 | 31523 ft | 414 kts | 300° |
| 2026-04-25 14:55 | 45.35088 | 17.16781 | 31742 ft | 416 kts | 300° |
| 2026-04-25 14:55 | 45.36616 | 17.13274 | 31976 ft | 417 kts | 300° |
| 2026-04-25 14:56 | 45.38141 | 17.09768 | 32221 ft | 418 kts | 300° |
| 2026-04-25 14:56 | 45.39661 | 17.06269 | 32468 ft | 419 kts | 300° |
| 2026-04-25 14:56 | 45.41186 | 17.02748 | 32691 ft | 420 kts | 300° |
| 2026-04-25 14:56 | 45.42708 | 16.99235 | 32930 ft | 420 kts | 300° |
| 2026-04-25 14:57 | 45.44233 | 16.95714 | 33214 ft | 419 kts | 300° |
| 2026-04-25 14:57 | 45.45766 | 16.92169 | 33484 ft | 419 kts | 300° |
| 2026-04-25 14:57 | 45.47285 | 16.88650 | 33719 ft | 419 kts | 300° |
| 2026-04-25 14:57 | 45.48801 | 16.85136 | 33943 ft | 420 kts | 300° |
| 2026-04-25 14:58 | 45.51859 | 16.78028 | 33999 ft | 420 kts | 300° |
| 2026-04-25 14:58 | 45.54908 | 16.70925 | 33998 ft | 421 kts | 300° |
| 2026-04-25 14:59 | 45.57941 | 16.63840 | 33994 ft | 421 kts | 300° |
| 2026-04-25 14:59 | 45.60989 | 16.56698 | 33990 ft | 421 kts | 300° |
| 2026-04-25 15:00 | 45.64010 | 16.49609 | 33987 ft | 421 kts | 300° |
| 2026-04-25 15:00 | 45.67041 | 16.42477 | 33985 ft | 421 kts | 300° |
| 2026-04-25 15:01 | 45.70067 | 16.35335 | 33989 ft | 420 kts | 300° |
| 2026-04-25 15:01 | 45.73067 | 16.28238 | 33993 ft | 418 kts | 299° |
| 2026-04-25 15:02 | 45.76073 | 16.21110 | 33992 ft | 419 kts | 299° |
| 2026-04-25 15:02 | 45.79074 | 16.13976 | 33993 ft | 420 kts | 299° |
| 2026-04-25 15:03 | 45.82062 | 16.06849 | 33992 ft | 420 kts | 299° |
| 2026-04-25 15:03 | 45.85050 | 15.99709 | 33991 ft | 419 kts | 298° |
| 2026-04-25 15:04 | 45.88037 | 15.92549 | 33988 ft | 419 kts | 298° |
| 2026-04-25 15:04 | 45.91008 | 15.85408 | 33986 ft | 419 kts | 298° |
| 2026-04-25 15:05 | 45.93983 | 15.78244 | 33986 ft | 418 kts | 298° |
| 2026-04-25 15:06 | 45.98430 | 15.67478 | 33979 ft | 419 kts | 298° |
| 2026-04-25 15:06 | 46.01385 | 15.60276 | 33983 ft | 418 kts | 298° |
| 2026-04-25 15:07 | 46.04303 | 15.53131 | 33984 ft | 418 kts | 298° |
| 2026-04-25 15:07 | 46.07240 | 15.45921 | 33977 ft | 419 kts | 298° |
| 2026-04-25 15:08 | 46.10168 | 15.38717 | 33983 ft | 419 kts | 298° |
| 2026-04-25 15:08 | 46.13110 | 15.31462 | 33979 ft | 417 kts | 297° |
| 2026-04-25 15:09 | 46.16018 | 15.24265 | 33982 ft | 418 kts | 298° |
| 2026-04-25 15:09 | 46.20383 | 15.13432 | 33988 ft | 418 kts | 297° |
| 2026-04-25 15:10 | 46.23284 | 15.06212 | 33996 ft | 418 kts | 297° |
| 2026-04-25 15:11 | 46.27628 | 14.95361 | 34001 ft | 418 kts | 297° |
| 2026-04-25 15:11 | 46.30535 | 14.88076 | 34019 ft | 417 kts | 297° |
| 2026-04-25 15:12 | 46.34833 | 14.77265 | 34006 ft | 415 kts | 297° |
| 2026-04-25 15:12 | 46.36753 | 14.72423 | 34010 ft | 416 kts | 297° |
| 2026-04-25 15:13 | 46.41996 | 14.59153 | 33988 ft | 417 kts | 297° |
| 2026-04-25 15:14 | 46.44866 | 14.51865 | 33997 ft | 418 kts | 297° |
| 2026-04-25 15:14 | 46.47729 | 14.44574 | 33998 ft | 417 kts | 297° |
| 2026-04-25 15:15 | 46.50582 | 14.37289 | 33981 ft | 416 kts | 297° |
| 2026-04-25 15:15 | 46.53432 | 14.29986 | 33984 ft | 416 kts | 296° |
| 2026-04-25 15:16 | 46.56256 | 14.22735 | 33975 ft | 415 kts | 296° |
| 2026-04-25 15:16 | 46.60941 | 14.12145 | 34002 ft | 419 kts | 303° |
| 2026-04-25 15:17 | 46.66333 | 14.02160 | 34040 ft | 419 kts | 304° |
| 2026-04-25 15:18 | 46.69952 | 13.95488 | 34076 ft | 418 kts | 304° |
| 2026-04-25 15:18 | 46.75329 | 13.85529 | 34108 ft | 419 kts | 304° |
| 2026-04-25 15:19 | 46.77728 | 13.81076 | 34112 ft | 419 kts | 304° |
| 2026-04-25 15:19 | 46.82491 | 13.72209 | 34127 ft | 419 kts | 304° |
| 2026-04-25 15:20 | 46.86081 | 13.65508 | 34144 ft | 418 kts | 304° |
| 2026-04-25 15:20 | 46.89636 | 13.58856 | 34132 ft | 417 kts | 304° |
| 2026-04-25 15:21 | 46.93197 | 13.52175 | 34136 ft | 417 kts | 304° |
| 2026-04-25 15:21 | 46.96733 | 13.45526 | 34143 ft | 417 kts | 304° |
| 2026-04-25 15:22 | 47.00292 | 13.38817 | 34150 ft | 417 kts | 304° |
| 2026-04-25 15:22 | 47.03836 | 13.32119 | 34150 ft | 417 kts | 303° |
| 2026-04-25 15:23 | 47.07387 | 13.25394 | 34149 ft | 417 kts | 304° |
| 2026-04-25 15:23 | 47.10927 | 13.18670 | 34140 ft | 416 kts | 304° |
| 2026-04-25 15:24 | 47.14459 | 13.11949 | 34152 ft | 417 kts | 304° |
| 2026-04-25 15:24 | 47.16789 | 13.07502 | 34161 ft | 417 kts | 304° |
| 2026-04-25 15:25 | 47.21522 | 12.98450 | 34144 ft | 418 kts | 304° |
| 2026-04-25 15:25 | 47.25046 | 12.91694 | 34150 ft | 417 kts | 304° |
| 2026-04-25 15:26 | 47.28551 | 12.84957 | 34154 ft | 418 kts | 304° |
| 2026-04-25 15:26 | 47.32079 | 12.78162 | 34156 ft | 418 kts | 304° |
| 2026-04-25 15:27 | 47.35590 | 12.71376 | 34140 ft | 417 kts | 304° |
| 2026-04-25 15:28 | 47.40841 | 12.61198 | 34140 ft | 418 kts | 304° |
| 2026-04-25 15:28 | 47.44362 | 12.54353 | 34134 ft | 419 kts | 304° |
| 2026-04-25 15:29 | 47.47875 | 12.47506 | 34132 ft | 421 kts | 304° |
| 2026-04-25 15:29 | 47.51402 | 12.40611 | 34139 ft | 421 kts | 305° |
| 2026-04-25 15:30 | 47.54910 | 12.33742 | 34126 ft | 420 kts | 304° |
| 2026-04-25 15:30 | 47.58418 | 12.26852 | 34119 ft | 420 kts | 304° |
| 2026-04-25 15:31 | 47.61926 | 12.19950 | 34117 ft | 420 kts | 304° |
| 2026-04-25 15:31 | 47.65415 | 12.13051 | 34112 ft | 422 kts | 305° |
| 2026-04-25 15:32 | 47.68906 | 12.06138 | 34127 ft | 422 kts | 304° |
| 2026-04-25 15:32 | 47.72402 | 11.99129 | 34109 ft | 423 kts | 305° |
| 2026-04-25 15:33 | 47.77625 | 11.88627 | 34111 ft | 423 kts | 305° |
| 2026-04-25 15:33 | 47.81114 | 11.81588 | 34113 ft | 422 kts | 305° |
| 2026-04-25 15:34 | 47.84574 | 11.74599 | 34115 ft | 421 kts | 305° |
| 2026-04-25 15:34 | 47.86876 | 11.69927 | 34107 ft | 421 kts | 305° |
| 2026-04-25 15:35 | 47.93209 | 11.57044 | 34096 ft | 424 kts | 306° |
| 2026-04-25 15:36 | 47.98423 | 11.46385 | 34110 ft | 425 kts | 307° |
| 2026-04-25 15:36 | 48.01888 | 11.39293 | 34098 ft | 424 kts | 307° |
| 2026-04-25 15:37 | 48.05357 | 11.32171 | 34097 ft | 424 kts | 306° |
| 2026-04-25 15:37 | 48.08798 | 11.25079 | 34091 ft | 425 kts | 306° |
| 2026-04-25 15:38 | 48.12262 | 11.17928 | 34087 ft | 425 kts | 306° |
| 2026-04-25 15:38 | 48.15700 | 11.10815 | 34087 ft | 425 kts | 306° |
| 2026-04-25 15:39 | 48.19156 | 11.03636 | 34092 ft | 426 kts | 307° |
| 2026-04-25 15:39 | 48.22606 | 10.96457 | 34089 ft | 426 kts | 307° |
| 2026-04-25 15:40 | 48.24904 | 10.91666 | 34089 ft | 425 kts | 307° |
| 2026-04-25 15:40 | 48.29470 | 10.82119 | 34088 ft | 425 kts | 307° |
| 2026-04-25 15:41 | 48.32901 | 10.74921 | 34087 ft | 425 kts | 307° |
| 2026-04-25 15:41 | 48.36336 | 10.67695 | 34087 ft | 426 kts | 307° |
| 2026-04-25 15:42 | 48.39769 | 10.60453 | 34087 ft | 425 kts | 307° |
| 2026-04-25 15:42 | 48.43166 | 10.53268 | 34089 ft | 425 kts | 307° |
| 2026-04-25 15:43 | 48.46587 | 10.46013 | 34091 ft | 426 kts | 307° |
| 2026-04-25 15:43 | 48.49990 | 10.38777 | 34092 ft | 425 kts | 307° |
| 2026-04-25 15:44 | 48.53402 | 10.31502 | 34093 ft | 425 kts | 306° |
| 2026-04-25 15:44 | 48.56788 | 10.24265 | 34094 ft | 424 kts | 306° |
| 2026-04-25 15:45 | 48.60173 | 10.17008 | 34095 ft | 424 kts | 306° |
| 2026-04-25 15:45 | 48.62437 | 10.12144 | 34097 ft | 424 kts | 306° |
| 2026-04-25 15:46 | 48.66939 | 10.02441 | 34099 ft | 424 kts | 306° |
| 2026-04-25 15:46 | 48.70332 | 9.95122 | 34101 ft | 424 kts | 307° |
| 2026-04-25 15:47 | 48.73991 | 9.88229 | 34103 ft | 422 kts | 312° |
| 2026-04-25 15:47 | 48.78021 | 9.81747 | 34103 ft | 423 kts | 314° |
| 2026-04-25 15:48 | 48.82066 | 9.75356 | 34106 ft | 421 kts | 314° |
| 2026-04-25 15:48 | 48.86109 | 9.68940 | 34099 ft | 420 kts | 314° |
| 2026-04-25 15:49 | 48.90110 | 9.62569 | 34102 ft | 421 kts | 314° |
| 2026-04-25 15:49 | 48.94144 | 9.56133 | 34124 ft | 421 kts | 314° |
| 2026-04-25 15:50 | 48.98170 | 9.49689 | 34126 ft | 421 kts | 314° |
| 2026-04-25 15:50 | 49.02182 | 9.43253 | 34108 ft | 420 kts | 314° |
| 2026-04-25 15:51 | 49.04867 | 9.38934 | 34112 ft | 420 kts | 314° |
| 2026-04-25 15:51 | 49.10214 | 9.30314 | 34099 ft | 420 kts | 313° |
| 2026-04-25 15:52 | 49.14216 | 9.23846 | 34111 ft | 420 kts | 313° |
| 2026-04-25 15:52 | 49.18198 | 9.17392 | 34108 ft | 419 kts | 313° |
| 2026-04-25 15:53 | 49.22161 | 9.10950 | 34087 ft | 419 kts | 313° |
| 2026-04-25 15:53 | 49.26152 | 9.04447 | 34106 ft | 419 kts | 313° |
| 2026-04-25 15:54 | 49.30136 | 8.97935 | 34098 ft | 419 kts | 313° |
| 2026-04-25 15:54 | 49.34137 | 8.91483 | 34098 ft | 419 kts | 316° |
| 2026-04-25 15:55 | 49.38558 | 8.85902 | 33699 ft | 412 kts | 325° |
| 2026-04-25 15:55 | 49.40979 | 8.83543 | 33430 ft | 414 kts | 329° |
| 2026-04-25 15:55 | 49.43511 | 8.81495 | 33159 ft | 413 kts | 334° |
| 2026-04-25 15:56 | 49.46131 | 8.79776 | 32886 ft | 411 kts | 338° |
| 2026-04-25 15:56 | 49.48847 | 8.78373 | 32620 ft | 412 kts | 342° |
| 2026-04-25 15:56 | 49.51587 | 8.77137 | 32350 ft | 413 kts | 342° |
| 2026-04-25 15:56 | 49.54338 | 8.75930 | 31999 ft | 411 kts | 343° |
| 2026-04-25 15:57 | 49.57059 | 8.74742 | 31572 ft | 408 kts | 343° |
| 2026-04-25 15:57 | 49.59795 | 8.73545 | 31277 ft | 404 kts | 343° |
| 2026-04-25 15:57 | 49.62467 | 8.72375 | 30980 ft | 402 kts | 343° |
| 2026-04-25 15:57 | 49.65137 | 8.71202 | 30634 ft | 400 kts | 343° |
| 2026-04-25 15:58 | 49.67794 | 8.70032 | 30280 ft | 397 kts | 343° |
| 2026-04-25 15:58 | 49.70446 | 8.68864 | 29925 ft | 394 kts | 343° |
| 2026-04-25 15:58 | 49.73041 | 8.67719 | 29559 ft | 391 kts | 343° |
| 2026-04-25 15:58 | 49.75660 | 8.66562 | 29195 ft | 389 kts | 343° |
| 2026-04-25 15:59 | 49.78232 | 8.65424 | 28840 ft | 388 kts | 342° |
| 2026-04-25 15:59 | 49.80838 | 8.64270 | 28440 ft | 386 kts | 343° |
| 2026-04-25 15:59 | 49.83376 | 8.63144 | 28019 ft | 383 kts | 342° |
| 2026-04-25 15:59 | 49.85923 | 8.62013 | 27586 ft | 380 kts | 343° |
| 2026-04-25 16:00 | 49.88451 | 8.60888 | 27139 ft | 377 kts | 343° |
| 2026-04-25 16:00 | 49.89274 | 8.60523 | 26999 ft | 376 kts | 343° |
| 2026-04-25 16:00 | 49.93443 | 8.58666 | 26287 ft | 371 kts | 343° |
| 2026-04-25 16:00 | 49.95896 | 8.57571 | 25860 ft | 368 kts | 343° |
| 2026-04-25 16:01 | 49.98353 | 8.56473 | 25430 ft | 365 kts | 343° |
| 2026-04-25 16:01 | 50.00784 | 8.55386 | 24993 ft | 362 kts | 343° |
| 2026-04-25 16:01 | 50.03185 | 8.54311 | 24546 ft | 360 kts | 343° |
| 2026-04-25 16:01 | 50.05587 | 8.53194 | 24111 ft | 357 kts | 341° |
| 2026-04-25 16:02 | 50.07920 | 8.51970 | 23660 ft | 355 kts | 340° |
| 2026-04-25 16:02 | 50.10255 | 8.50714 | 23207 ft | 353 kts | 340° |
| 2026-04-25 16:02 | 50.12571 | 8.49465 | 22784 ft | 351 kts | 340° |
| 2026-04-25 16:02 | 50.14859 | 8.48227 | 22350 ft | 349 kts | 340° |
| 2026-04-25 16:03 | 50.17153 | 8.46987 | 21920 ft | 347 kts | 340° |
| 2026-04-25 16:03 | 50.19403 | 8.45772 | 21526 ft | 345 kts | 340° |
| 2026-04-25 16:03 | 50.21662 | 8.44549 | 21159 ft | 343 kts | 340° |
| 2026-04-25 16:03 | 50.23905 | 8.43332 | 20693 ft | 342 kts | 340° |
| 2026-04-25 16:04 | 50.26117 | 8.42134 | 20279 ft | 341 kts | 340° |
| 2026-04-25 16:04 | 50.28308 | 8.40777 | 19849 ft | 338 kts | 335° |
| 2026-04-25 16:04 | 50.30397 | 8.39139 | 19408 ft | 337 kts | 330° |
| 2026-04-25 16:04 | 50.32388 | 8.37261 | 18980 ft | 335 kts | 328° |
| 2026-04-25 16:05 | 50.34358 | 8.35305 | 18569 ft | 333 kts | 327° |
| 2026-04-25 16:05 | 50.36295 | 8.33366 | 18159 ft | 331 kts | 326° |
| 2026-04-25 16:05 | 50.40118 | 8.29539 | 17392 ft | 326 kts | 326° |
| 2026-04-25 16:06 | 50.42025 | 8.27631 | 16979 ft | 324 kts | 326° |
| 2026-04-25 16:06 | 50.43907 | 8.25748 | 16561 ft | 323 kts | 326° |
| 2026-04-25 16:06 | 50.45789 | 8.23864 | 16151 ft | 321 kts | 327° |
| 2026-04-25 16:06 | 50.47663 | 8.21987 | 15737 ft | 319 kts | 326° |
| 2026-04-25 16:07 | 50.49527 | 8.20119 | 15364 ft | 317 kts | 326° |
| 2026-04-25 16:07 | 50.50134 | 8.19509 | 15236 ft | 316 kts | 326° |
| 2026-04-25 16:07 | 50.53210 | 8.16416 | 14580 ft | 312 kts | 326° |
| 2026-04-25 16:07 | 50.55008 | 8.14605 | 14201 ft | 310 kts | 326° |
| 2026-04-25 16:08 | 50.56830 | 8.12766 | 13781 ft | 309 kts | 326° |
| 2026-04-25 16:08 | 50.58612 | 8.10969 | 13394 ft | 307 kts | 326° |
| 2026-04-25 16:08 | 50.60422 | 8.09143 | 12992 ft | 306 kts | 326° |
| 2026-04-25 16:08 | 50.62200 | 8.07344 | 12598 ft | 304 kts | 326° |
| 2026-04-25 16:09 | 50.63968 | 8.05554 | 12194 ft | 303 kts | 326° |
| 2026-04-25 16:09 | 50.65730 | 8.03766 | 11793 ft | 302 kts | 326° |
| 2026-04-25 16:09 | 50.67473 | 8.01996 | 11398 ft | 300 kts | 326° |
| 2026-04-25 16:09 | 50.69217 | 8.00222 | 10995 ft | 299 kts | 326° |
| 2026-04-25 16:10 | 50.70972 | 7.98435 | 10579 ft | 298 kts | 326° |
| 2026-04-25 16:10 | 50.72675 | 7.96704 | 10404 ft | 287 kts | 326° |
| 2026-04-25 16:10 | 50.74221 | 7.94809 | 10258 ft | 275 kts | 309° |
| 2026-04-25 16:10 | 50.75037 | 7.92177 | 10049 ft | 270 kts | 285° |
| 2026-04-25 16:11 | 50.75063 | 7.89204 | 9557 ft | 278 kts | 265° |
| 2026-04-25 16:11 | 50.74762 | 7.86161 | 9088 ft | 280 kts | 265° |
| 2026-04-25 16:11 | 50.74479 | 7.83126 | 8635 ft | 281 kts | 265° |
| 2026-04-25 16:11 | 50.74201 | 7.80072 | 8223 ft | 280 kts | 265° |
| 2026-04-25 16:12 | 50.73929 | 7.77066 | 7911 ft | 276 kts | 265° |
| 2026-04-25 16:12 | 50.73659 | 7.74074 | 7406 ft | 279 kts | 265° |
| 2026-04-25 16:12 | 50.73388 | 7.71060 | 7095 ft | 275 kts | 265° |
| 2026-04-25 16:12 | 50.73301 | 7.70098 | 6973 ft | 274 kts | 265° |
| 2026-04-25 16:13 | 50.72854 | 7.65180 | 6451 ft | 269 kts | 265° |
| 2026-04-25 16:13 | 50.72594 | 7.62309 | 6134 ft | 265 kts | 265° |
| 2026-04-25 16:13 | 50.72332 | 7.59423 | 5792 ft | 262 kts | 265° |
| 2026-04-25 16:13 | 50.72076 | 7.56645 | 5520 ft | 258 kts | 265° |
| 2026-04-25 16:14 | 50.71818 | 7.53850 | 5233 ft | 253 kts | 265° |
| 2026-04-25 16:14 | 50.71569 | 7.51145 | 4956 ft | 249 kts | 265° |
| 2026-04-25 16:14 | 50.71321 | 7.48467 | 4681 ft | 245 kts | 265° |
| 2026-04-25 16:14 | 50.71080 | 7.45843 | 4421 ft | 241 kts | 265° |
| 2026-04-25 16:15 | 50.70838 | 7.43224 | 4152 ft | 237 kts | 265° |
| 2026-04-25 16:15 | 50.70609 | 7.40692 | 3890 ft | 233 kts | 268° |
| 2026-04-25 16:15 | 50.70850 | 7.38263 | 3622 ft | 222 kts | 300° |
| 2026-04-25 16:15 | 50.71736 | 7.36356 | 3411 ft | 213 kts | 316° |
| 2026-04-25 16:16 | 50.72816 | 7.34813 | 3231 ft | 207 kts | 321° |
| 2026-04-25 16:16 | 50.73918 | 7.33349 | 3223 ft | 203 kts | 320° |
| 2026-04-25 16:16 | 50.74933 | 7.31950 | 3111 ft | 191 kts | 319° |
| 2026-04-25 16:16 | 50.75901 | 7.30560 | 2838 ft | 185 kts | 319° |
| 2026-04-25 16:17 | 50.76834 | 7.29204 | 2551 ft | 180 kts | 319° |
| 2026-04-25 16:17 | 50.77732 | 7.27890 | 2300 ft | 174 kts | 318° |
| 2026-04-25 16:17 | 50.78602 | 7.26617 | 2079 ft | 165 kts | 318° |
| 2026-04-25 16:17 | 50.79404 | 7.25466 | 1878 ft | 148 kts | 319° |
| 2026-04-25 16:18 | 50.80140 | 7.24396 | 1718 ft | 142 kts | 318° |
| 2026-04-25 16:18 | 50.80376 | 7.24047 | 1659 ft | 141 kts | 317° |
| 2026-04-25 16:18 | 50.81568 | 7.22287 | 1373 ft | 140 kts | 320° |
| 2026-04-25 16:18 | 50.82293 | 7.21235 | 1199 ft | 140 kts | 318° |
| 2026-04-25 16:19 | 50.83003 | 7.20200 | 1004 ft | 140 kts | 317° |
| 2026-04-25 16:19 | 50.83728 | 7.19170 | 803 ft | 140 kts | 320° |
| 2026-04-25 16:19 | 50.84433 | 7.18144 | 645 ft | 139 kts | 320° |
| 2026-04-25 16:20 | 50.85861 | 7.16082 | 310 ft | 135 kts | 315° |
| 2026-04-25 16:20 | 50.86483 | 7.15174 | 279 ft | 98 kts | 319° |
| 2026-04-25 16:20 | 50.87150 | 7.14198 | 256 ft | 52 kts | 315° |
| 2026-04-25 16:21 | 50.87303 | 7.13854 | 249 ft | 27 kts | 282° |
| 2026-04-25 16:21 | 50.87323 | 7.13673 | 246 ft | 13 kts | 280° |
| 2026-04-25 16:21 | 50.87339 | 7.13525 | 245 ft | 13 kts | 279° |
| 2026-04-25 16:21 | 50.87355 | 7.13375 | 245 ft | 13 kts | 278° |
| 2026-04-25 16:22 | 50.87394 | 7.13240 | 245 ft | 14 kts | 316° |
| 2026-04-25 16:22 | 50.87472 | 7.13126 | 245 ft | 15 kts | 317° |
| 2026-04-25 16:22 | 50.87560 | 7.13000 | 247 ft | 18 kts | 316° |
| 2026-04-25 16:22 | 50.87657 | 7.12859 | 249 ft | 19 kts | 318° |
| 2026-04-25 16:23 | 50.87757 | 7.12714 | 249 ft | 19 kts | 317° |
| 2026-04-25 16:23 | 50.87870 | 7.12614 | 248 ft | 19 kts | 4° |
| 2026-04-25 16:23 | 50.87960 | 7.12543 | 246 ft | 14 kts | 321° |
| 2026-04-25 16:23 | 50.88039 | 7.12436 | 243 ft | 15 kts | 314° |
| 2026-04-25 16:24 | 50.88100 | 7.12297 | 237 ft | 9 kts | 286° |
| 2026-04-25 16:24 | 50.88138 | 7.12184 | 233 ft | 13 kts | 306° |
| 2026-04-25 16:24 | 50.88196 | 7.12057 | 230 ft | 14 kts | 306° |
| 2026-04-25 16:24 | 50.88233 | 7.11969 | 229 ft | 3 kts | 269° |
| 2026-04-25 16:25 | 50.88223 | 7.11936 | 229 ft | 3 kts | 229° |
| 2026-04-25 16:25 | 50.88216 | 7.11925 | 229 ft | 4 kts | 221° |
| 2026-04-25 16:25 | 50.88201 | 7.11908 | 228 ft | 0 kts | 216° |